sensor_id;sensor_type;location;lat;lon;timestamp;pressure;altitude;pressure_sealevel;temperature;humidity
15670;BME280;18524;45.190;5.732;2023-05-09T00:00:46;99400.16;;;19.00;88.97
15670;BME280;18524;45.190;5.732;2023-05-09T00:05:37;99400.50;;;18.97;89.82
15670;BME280;18524;45.190;5.732;2023-05-09T00:10:28;99400.31;;;18.91;90.33
15670;BME280;18524;45.190;5.732;2023-05-09T00:15:18;99399.31;;;18.92;89.83
15670;BME280;18524;45.190;5.732;2023-05-09T00:20:09;99401.16;;;18.83;90.56
15670;BME280;18524;45.190;5.732;2023-05-09T00:25:01;99394.53;;;18.79;90.71
15670;BME280;18524;45.190;5.732;2023-05-09T00:29:51;99396.22;;;18.72;91.06
15670;BME280;18524;45.190;5.732;2023-05-09T00:34:42;99396.53;;;18.77;90.53
15670;BME280;18524;45.190;5.732;2023-05-09T00:39:32;99397.72;;;18.66;91.75
15670;BME280;18524;45.190;5.732;2023-05-09T00:44:22;99383.28;;;18.69;91.85
15670;BME280;18524;45.190;5.732;2023-05-09T00:49:13;99385.78;;;18.70;91.98
15670;BME280;18524;45.190;5.732;2023-05-09T00:54:03;99375.78;;;18.72;92.03
15670;BME280;18524;45.190;5.732;2023-05-09T00:58:54;99371.63;;;18.78;91.69
15670;BME280;18524;45.190;5.732;2023-05-09T01:03:44;99367.97;;;18.79;91.71
15670;BME280;18524;45.190;5.732;2023-05-09T01:08:43;99363.34;;;18.73;91.17
15670;BME280;18524;45.190;5.732;2023-05-09T01:19:24;99361.53;;;18.65;92.28
15670;BME280;18524;45.190;5.732;2023-05-09T01:29:44;99334.97;;;18.65;92.52
15670;BME280;18524;45.190;5.732;2023-05-09T01:34:39;99346.59;;;18.64;92.33
15670;BME280;18524;45.190;5.732;2023-05-09T01:39:32;99343.09;;;18.72;92.82
15670;BME280;18524;45.190;5.732;2023-05-09T01:44:24;99340.09;;;18.75;92.95
15670;BME280;18524;45.190;5.732;2023-05-09T01:49:15;99344.22;;;18.78;93.07
15670;BME280;18524;45.190;5.732;2023-05-09T01:54:08;99340.59;;;18.70;92.41
15670;BME280;18524;45.190;5.732;2023-05-09T01:59:01;99334.13;;;18.65;92.66
15670;BME280;18524;45.190;5.732;2023-05-09T02:03:53;99334.63;;;18.68;92.93
15670;BME280;18524;45.190;5.732;2023-05-09T02:08:44;99325.66;;;18.69;92.82
15670;BME280;18524;45.190;5.732;2023-05-09T02:13:35;99324.53;;;18.64;93.09
15670;BME280;18524;45.190;5.732;2023-05-09T02:18:27;99336.09;;;18.55;93.04
15670;BME280;18524;45.190;5.732;2023-05-09T02:23:19;99331.31;;;18.50;93.67
15670;BME280;18524;45.190;5.732;2023-05-09T02:28:10;99326.34;;;18.47;94.08
15670;BME280;18524;45.190;5.732;2023-05-09T02:33:02;99330.34;;;18.43;94.50
15670;BME280;18524;45.190;5.732;2023-05-09T02:37:54;99333.16;;;18.41;95.54
15670;BME280;18524;45.190;5.732;2023-05-09T02:42:46;99333.66;;;18.37;95.69
15670;BME280;18524;45.190;5.732;2023-05-09T02:47:37;99341.63;;;18.37;95.98
15670;BME280;18524;45.190;5.732;2023-05-09T02:52:27;99331.03;;;18.29;96.37
15670;BME280;18524;45.190;5.732;2023-05-09T02:57:17;99341.81;;;18.27;96.31
15670;BME280;18524;45.190;5.732;2023-05-09T03:02:08;99335.00;;;18.17;96.81
15670;BME280;18524;45.190;5.732;2023-05-09T03:06:58;99331.34;;;18.18;96.54
15670;BME280;18524;45.190;5.732;2023-05-09T03:11:49;99328.69;;;18.18;96.89
15670;BME280;18524;45.190;5.732;2023-05-09T03:16:39;99320.75;;;18.09;96.81
15670;BME280;18524;45.190;5.732;2023-05-09T03:21:30;99332.53;;;18.07;97.67
15670;BME280;18524;45.190;5.732;2023-05-09T03:26:21;99331.03;;;18.04;97.79
15670;BME280;18524;45.190;5.732;2023-05-09T03:31:11;99336.50;;;18.03;98.19
15670;BME280;18524;45.190;5.732;2023-05-09T03:36:01;99336.34;;;17.96;98.56
15670;BME280;18524;45.190;5.732;2023-05-09T03:40:52;99335.03;;;17.92;99.12
15670;BME280;18524;45.190;5.732;2023-05-09T03:45:42;99329.22;;;17.89;100.00
15670;BME280;18524;45.190;5.732;2023-05-09T03:50:33;99314.78;;;17.91;99.69
15670;BME280;18524;45.190;5.732;2023-05-09T03:55:23;99324.91;;;17.88;100.00
15670;BME280;18524;45.190;5.732;2023-05-09T04:00:14;99331.53;;;17.92;100.00
15670;BME280;18524;45.190;5.732;2023-05-09T04:05:04;99331.38;;;17.93;99.28
15670;BME280;18524;45.190;5.732;2023-05-09T04:09:55;99326.25;;;17.92;99.81
15670;BME280;18524;45.190;5.732;2023-05-09T04:14:45;99322.09;;;17.89;99.72
15670;BME280;18524;45.190;5.732;2023-05-09T04:19:36;99317.94;;;17.95;99.68
15670;BME280;18524;45.190;5.732;2023-05-09T04:24:26;99320.78;;;17.93;99.88
15670;BME280;18524;45.190;5.732;2023-05-09T04:29:16;99328.06;;;17.91;100.00
15670;BME280;18524;45.190;5.732;2023-05-09T04:34:07;99324.25;;;17.94;100.00
15670;BME280;18524;45.190;5.732;2023-05-09T04:38:57;99321.28;;;17.89;100.00
15670;BME280;18524;45.190;5.732;2023-05-09T04:43:48;99332.84;;;17.79;100.00
15670;BME280;18524;45.190;5.732;2023-05-09T04:48:38;99321.59;;;17.86;100.00
15670;BME280;18524;45.190;5.732;2023-05-09T04:53:29;99329.88;;;17.83;100.00
15670;BME280;18524;45.190;5.732;2023-05-09T04:58:19;99323.25;;;17.87;100.00
15670;BME280;18524;45.190;5.732;2023-05-09T05:03:09;99314.13;;;17.89;100.00
15670;BME280;18524;45.190;5.732;2023-05-09T05:08:00;99310.81;;;17.87;100.00
15670;BME280;18524;45.190;5.732;2023-05-09T05:12:50;99308.00;;;17.97;100.00
15670;BME280;18524;45.190;5.732;2023-05-09T05:17:40;99314.28;;;17.96;100.00
15670;BME280;18524;45.190;5.732;2023-05-09T05:22:31;99311.13;;;18.00;100.00
15670;BME280;18524;45.190;5.732;2023-05-09T05:27:21;99322.41;;;18.10;100.00
15670;BME280;18524;45.190;5.732;2023-05-09T05:32:12;99322.72;;;18.16;100.00
15670;BME280;18524;45.190;5.732;2023-05-09T05:37:02;99311.94;;;18.17;98.83
15670;BME280;18524;45.190;5.732;2023-05-09T05:41:52;99312.59;;;18.19;98.65
15670;BME280;18524;45.190;5.732;2023-05-09T05:46:43;99316.25;;;18.26;98.95
15670;BME280;18524;45.190;5.732;2023-05-09T05:51:33;99307.97;;;18.29;99.80
15670;BME280;18524;45.190;5.732;2023-05-09T05:56:24;99308.94;;;18.36;99.14
15670;BME280;18524;45.190;5.732;2023-05-09T06:01:15;99300.94;;;18.44;98.97
15670;BME280;18524;45.190;5.732;2023-05-09T06:06:05;99293.59;;;18.55;100.00
15670;BME280;18524;45.190;5.732;2023-05-09T06:10:56;99293.44;;;18.72;99.50
15670;BME280;18524;45.190;5.732;2023-05-09T06:15:46;99288.69;;;18.91;96.93
15670;BME280;18524;45.190;5.732;2023-05-09T06:20:37;99283.78;;;19.11;96.03
15670;BME280;18524;45.190;5.732;2023-05-09T06:25:27;99279.44;;;19.72;91.94
15670;BME280;18524;45.190;5.732;2023-05-09T06:30:17;99267.91;;;19.94;89.74
15670;BME280;18524;45.190;5.732;2023-05-09T06:35:08;99264.50;;;19.85;90.29
15670;BME280;18524;45.190;5.732;2023-05-09T06:39:58;99259.69;;;20.18;88.14
15670;BME280;18524;45.190;5.732;2023-05-09T06:44:49;99252.84;;;20.01;86.70
15670;BME280;18524;45.190;5.732;2023-05-09T06:49:39;99255.28;;;20.25;85.11
15670;BME280;18524;45.190;5.732;2023-05-09T06:54:29;99243.16;;;20.38;85.29
15670;BME280;18524;45.190;5.732;2023-05-09T06:59:20;99234.06;;;20.76;83.12
15670;BME280;18524;45.190;5.732;2023-05-09T07:04:11;99232.16;;;21.06;79.38
15670;BME280;18524;45.190;5.732;2023-05-09T07:09:02;99220.16;;;21.32;78.36
15670;BME280;18524;45.190;5.732;2023-05-09T07:13:53;99211.44;;;21.23;78.00
15670;BME280;18524;45.190;5.732;2023-05-09T07:18:43;99197.69;;;21.47;76.79
15670;BME280;18524;45.190;5.732;2023-05-09T07:23:34;99193.44;;;21.53;76.94
15670;BME280;18524;45.190;5.732;2023-05-09T07:28:24;99195.09;;;22.03;73.58
15670;BME280;18524;45.190;5.732;2023-05-09T07:33:15;99187.59;;;22.27;72.80
15670;BME280;18524;45.190;5.732;2023-05-09T07:38:05;99170.03;;;22.45;72.69
15670;BME280;18524;45.190;5.732;2023-05-09T07:42:55;99166.28;;;21.99;74.52
15670;BME280;18524;45.190;5.732;2023-05-09T07:47:46;99147.91;;;22.24;74.10
15670;BME280;18524;45.190;5.732;2023-05-09T07:52:36;99141.00;;;22.36;72.95
15670;BME280;18524;45.190;5.732;2023-05-09T07:57:26;99137.84;;;22.73;70.77
15670;BME280;18524;45.190;5.732;2023-05-09T08:02:17;99132.56;;;23.00;69.52
15670;BME280;18524;45.190;5.732;2023-05-09T08:07:08;99131.97;;;23.31;68.10
15670;BME280;18524;45.190;5.732;2023-05-09T08:11:58;99122.91;;;23.52;66.03
15670;BME280;18524;45.190;5.732;2023-05-09T08:16:48;99110.97;;;23.48;65.70
15670;BME280;18524;45.190;5.732;2023-05-09T08:21:39;99104.97;;;23.85;65.64
15670;BME280;18524;45.190;5.732;2023-05-09T08:26:29;99095.97;;;24.24;64.05
15670;BME280;18524;45.190;5.732;2023-05-09T08:31:19;99087.59;;;24.59;61.68
15670;BME280;18524;45.190;5.732;2023-05-09T08:36:10;99077.69;;;24.91;60.12
15670;BME280;18524;45.190;5.732;2023-05-09T08:41:01;99080.19;;;24.54;60.40
15670;BME280;18524;45.190;5.732;2023-05-09T08:45:55;99066.38;;;24.57;58.76
15670;BME280;18524;45.190;5.732;2023-05-09T08:50:48;99053.63;;;25.34;57.10
15670;BME280;18524;45.190;5.732;2023-05-09T08:55:38;99041.38;;;25.38;55.92
15670;BME280;18524;45.190;5.732;2023-05-09T09:00:30;99026.00;;;25.70;55.79
15670;BME280;18524;45.190;5.732;2023-05-09T09:05:22;99018.88;;;26.12;54.21
15670;BME280;18524;45.190;5.732;2023-05-09T09:10:13;99013.84;;;25.68;55.25
15670;BME280;18524;45.190;5.732;2023-05-09T09:15:04;98993.56;;;25.47;53.74
15670;BME280;18524;45.190;5.732;2023-05-09T09:20:01;98987.25;;;24.98;55.30
15670;BME280;18524;45.190;5.732;2023-05-09T09:24:54;98984.06;;;25.26;55.61
15670;BME280;18524;45.190;5.732;2023-05-09T09:29:44;98984.47;;;25.48;54.76
15670;BME280;18524;45.190;5.732;2023-05-09T09:34:35;98976.03;;;25.63;54.81
15670;BME280;18524;45.190;5.732;2023-05-09T09:39:25;98968.50;;;25.90;54.13
15670;BME280;18524;45.190;5.732;2023-05-09T09:44:18;98959.00;;;26.35;52.12
15670;BME280;18524;45.190;5.732;2023-05-09T09:49:13;98954.03;;;26.74;52.08
15670;BME280;18524;45.190;5.732;2023-05-09T09:54:06;98941.91;;;26.83;50.47
15670;BME280;18524;45.190;5.732;2023-05-09T09:59:14;98926.22;;;27.15;49.56
15670;BME280;18524;45.190;5.732;2023-05-09T10:04:05;98919.19;;;27.78;48.77
15670;BME280;18524;45.190;5.732;2023-05-09T10:08:55;98901.44;;;28.10;47.30
15670;BME280;18524;45.190;5.732;2023-05-09T10:13:46;98893.44;;;27.98;46.43
15670;BME280;18524;45.190;5.732;2023-05-09T10:18:36;98885.50;;;27.92;46.38
15670;BME280;18524;45.190;5.732;2023-05-09T10:23:29;98878.97;;;27.88;47.66
15670;BME280;18524;45.190;5.732;2023-05-09T10:28:22;98881.66;;;28.05;47.27
15670;BME280;18524;45.190;5.732;2023-05-09T10:33:19;98872.41;;;28.29;46.30
15670;BME280;18524;45.190;5.732;2023-05-09T10:38:13;98857.50;;;28.60;45.29
15670;BME280;18524;45.190;5.732;2023-05-09T10:43:04;98855.50;;;28.89;45.97
15670;BME280;18524;45.190;5.732;2023-05-09T10:47:56;98838.06;;;28.97;44.30
15670;BME280;18524;45.190;5.732;2023-05-09T10:58:33;98819.47;;;29.22;43.69
15670;BME280;18524;45.190;5.732;2023-05-09T11:03:26;98810.31;;;29.23;44.04
15670;BME280;18524;45.190;5.732;2023-05-09T11:08:28;98803.78;;;29.19;44.71
15670;BME280;18524;45.190;5.732;2023-05-09T11:13:23;98795.94;;;28.95;46.10
15670;BME280;18524;45.190;5.732;2023-05-09T11:18:14;98796.47;;;28.76;46.52
15670;BME280;18524;45.190;5.732;2023-05-09T11:23:05;98781.66;;;28.40;47.56
15670;BME280;18524;45.190;5.732;2023-05-09T11:28:00;98769.38;;;28.15;48.01
15670;BME280;18524;45.190;5.732;2023-05-09T11:32:52;98765.72;;;28.05;47.42
15670;BME280;18524;45.190;5.732;2023-05-09T11:38:01;98758.72;;;27.58;48.03
15670;BME280;18524;45.190;5.732;2023-05-09T11:42:53;98758.81;;;27.18;50.58
15670;BME280;18524;45.190;5.732;2023-05-09T11:47:45;98772.59;;;26.70;52.00
15670;BME280;18524;45.190;5.732;2023-05-09T11:52:37;98768.66;;;26.37;50.91
15670;BME280;18524;45.190;5.732;2023-05-09T11:57:28;98785.22;;;26.11;50.91
15670;BME280;18524;45.190;5.732;2023-05-09T12:02:20;98783.66;;;25.80;56.05
15670;BME280;18524;45.190;5.732;2023-05-09T12:07:12;98794.97;;;25.52;58.21
15670;BME280;18524;45.190;5.732;2023-05-09T12:12:09;98803.38;;;25.25;58.92
15670;BME280;18524;45.190;5.732;2023-05-09T12:17:00;98813.72;;;24.92;64.41
15670;BME280;18524;45.190;5.732;2023-05-09T12:21:59;98817.78;;;24.58;63.93
15670;BME280;18524;45.190;5.732;2023-05-09T12:26:50;98812.59;;;24.38;67.11
15670;BME280;18524;45.190;5.732;2023-05-09T12:31:40;98799.75;;;24.22;66.56
15670;BME280;18524;45.190;5.732;2023-05-09T12:36:33;98807.75;;;24.28;69.68
15670;BME280;18524;45.190;5.732;2023-05-09T12:41:24;98810.56;;;24.09;71.58
15670;BME280;18524;45.190;5.732;2023-05-09T12:46:18;98819.31;;;23.97;73.89
15670;BME280;18524;45.190;5.732;2023-05-09T12:51:09;98830.66;;;23.93;74.15
15670;BME280;18524;45.190;5.732;2023-05-09T12:56:04;98820.13;;;23.66;79.13
15670;BME280;18524;45.190;5.732;2023-05-09T13:01:02;98825.69;;;23.20;80.83
15670;BME280;18524;45.190;5.732;2023-05-09T13:05:57;98827.69;;;22.73;88.80
15670;BME280;18524;45.190;5.732;2023-05-09T13:10:48;98834.66;;;22.74;94.59
15670;BME280;18524;45.190;5.732;2023-05-09T13:15:38;98838.78;;;22.70;95.54
15670;BME280;18524;45.190;5.732;2023-05-09T13:20:29;98838.19;;;22.68;97.86
15670;BME280;18524;45.190;5.732;2023-05-09T13:25:19;98838.78;;;22.64;98.82
15670;BME280;18524;45.190;5.732;2023-05-09T13:30:10;98842.31;;;22.51;100.00
15670;BME280;18524;45.190;5.732;2023-05-09T13:35:01;98835.75;;;22.40;100.00
15670;BME280;18524;45.190;5.732;2023-05-09T13:39:51;98848.47;;;22.19;100.00
15670;BME280;18524;45.190;5.732;2023-05-09T13:44:43;98836.09;;;21.91;100.00
15670;BME280;18524;45.190;5.732;2023-05-09T13:49:33;98850.09;;;22.00;100.00
15670;BME280;18524;45.190;5.732;2023-05-09T13:54:24;98862.81;;;21.91;100.00
15670;BME280;18524;45.190;5.732;2023-05-09T13:59:16;98856.63;;;21.71;100.00
15670;BME280;18524;45.190;5.732;2023-05-09T14:04:06;98850.81;;;21.54;100.00
15670;BME280;18524;45.190;5.732;2023-05-09T14:08:57;98854.50;;;21.53;100.00
15670;BME280;18524;45.190;5.732;2023-05-09T14:13:47;98856.09;;;21.34;100.00
15670;BME280;18524;45.190;5.732;2023-05-09T14:18:38;98851.97;;;21.25;100.00
15670;BME280;18524;45.190;5.732;2023-05-09T14:23:28;98859.25;;;21.16;100.00
15670;BME280;18524;45.190;5.732;2023-05-09T14:28:19;98864.56;;;21.10;100.00
15670;BME280;18524;45.190;5.732;2023-05-09T14:33:09;98853.25;;;21.01;100.00
15670;BME280;18524;45.190;5.732;2023-05-09T14:38:00;98853.03;;;21.03;100.00
15670;BME280;18524;45.190;5.732;2023-05-09T14:42:50;98848.09;;;21.00;100.00
15670;BME280;18524;45.190;5.732;2023-05-09T14:47:41;98853.25;;;21.01;100.00
15670;BME280;18524;45.190;5.732;2023-05-09T14:52:31;98851.97;;;20.90;100.00
15670;BME280;18524;45.190;5.732;2023-05-09T14:57:21;98846.78;;;20.82;100.00
15670;BME280;18524;45.190;5.732;2023-05-09T15:02:12;98846.97;;;20.81;100.00
15670;BME280;18524;45.190;5.732;2023-05-09T15:07:02;98836.28;;;20.74;100.00
15670;BME280;18524;45.190;5.732;2023-05-09T15:11:55;98841.41;;;20.76;100.00
15670;BME280;18524;45.190;5.732;2023-05-09T15:16:45;98854.47;;;20.64;100.00
15670;BME280;18524;45.190;5.732;2023-05-09T15:21:35;98847.47;;;20.63;100.00
15670;BME280;18524;45.190;5.732;2023-05-09T15:26:26;98853.22;;;20.39;100.00
15670;BME280;18524;45.190;5.732;2023-05-09T15:31:16;98856.69;;;20.39;100.00
15670;BME280;18524;45.190;5.732;2023-05-09T15:36:10;98856.38;;;20.21;100.00
15670;BME280;18524;45.190;5.732;2023-05-09T15:41:01;98863.34;;;20.22;100.00
15670;BME280;18524;45.190;5.732;2023-05-09T15:45:52;98853.59;;;20.08;100.00
15670;BME280;18524;45.190;5.732;2023-05-09T15:50:43;98867.66;;;20.02;100.00
15670;BME280;18524;45.190;5.732;2023-05-09T15:55:34;98870.25;;;19.95;100.00
15670;BME280;18524;45.190;5.732;2023-05-09T16:00:25;98865.94;;;19.94;100.00
15670;BME280;18524;45.190;5.732;2023-05-09T16:05:16;98877.78;;;19.91;100.00
15670;BME280;18524;45.190;5.732;2023-05-09T16:10:06;98877.09;;;19.83;100.00
15670;BME280;18524;45.190;5.732;2023-05-09T16:14:57;98891.81;;;19.64;100.00
15670;BME280;18524;45.190;5.732;2023-05-09T16:19:47;98887.28;;;19.43;100.00
15670;BME280;18524;45.190;5.732;2023-05-09T16:24:37;98895.72;;;19.17;100.00
15670;BME280;18524;45.190;5.732;2023-05-09T16:29:28;98895.09;;;19.15;100.00
15670;BME280;18524;45.190;5.732;2023-05-09T16:34:18;98898.22;;;19.04;100.00
15670;BME280;18524;45.190;5.732;2023-05-09T16:39:09;98906.00;;;19.05;100.00
15670;BME280;18524;45.190;5.732;2023-05-09T16:43:59;98903.53;;;19.04;100.00
15670;BME280;18524;45.190;5.732;2023-05-09T16:48:50;98909.69;;;19.04;100.00
15670;BME280;18524;45.190;5.732;2023-05-09T16:53:41;98920.91;;;18.92;100.00
15670;BME280;18524;45.190;5.732;2023-05-09T16:58:31;98927.06;;;18.92;100.00
15670;BME280;18524;45.190;5.732;2023-05-09T17:03:21;98944.31;;;18.96;100.00
15670;BME280;18524;45.190;5.732;2023-05-09T17:08:12;98947.94;;;18.81;100.00
15670;BME280;18524;45.190;5.732;2023-05-09T17:13:04;98956.38;;;18.84;100.00
15670;BME280;18524;45.190;5.732;2023-05-09T17:17:56;98951.59;;;18.65;100.00
15670;BME280;18524;45.190;5.732;2023-05-09T17:22:46;98952.78;;;18.62;100.00
15670;BME280;18524;45.190;5.732;2023-05-09T17:27:37;98956.00;;;18.50;100.00
15670;BME280;18524;45.190;5.732;2023-05-09T17:32:27;98953.94;;;18.60;100.00
15670;BME280;18524;45.190;5.732;2023-05-09T17:37:18;98963.06;;;18.57;100.00
15670;BME280;18524;45.190;5.732;2023-05-09T17:42:08;98944.38;;;18.51;100.00
15670;BME280;18524;45.190;5.732;2023-05-09T17:46:59;98939.34;;;18.56;100.00
15670;BME280;18524;45.190;5.732;2023-05-09T17:51:50;98955.91;;;18.58;100.00
15670;BME280;18524;45.190;5.732;2023-05-09T17:56:45;98979.25;;;18.48;100.00
15670;BME280;18524;45.190;5.732;2023-05-09T18:01:40;98973.81;;;18.41;100.00
15670;BME280;18524;45.190;5.732;2023-05-09T18:06:30;98962.63;;;18.31;100.00
15670;BME280;18524;45.190;5.732;2023-05-09T18:11:21;98958.69;;;18.27;100.00
15670;BME280;18524;45.190;5.732;2023-05-09T18:16:11;98968.13;;;18.29;100.00
15670;BME280;18524;45.190;5.732;2023-05-09T18:21:02;98980.47;;;18.14;100.00
15670;BME280;18524;45.190;5.732;2023-05-09T18:25:54;98977.16;;;18.12;100.00
15670;BME280;18524;45.190;5.732;2023-05-09T18:30:45;98966.19;;;18.15;100.00
15670;BME280;18524;45.190;5.732;2023-05-09T18:35:35;98962.38;;;18.18;100.00
15670;BME280;18524;45.190;5.732;2023-05-09T18:40:25;98974.88;;;18.09;100.00
15670;BME280;18524;45.190;5.732;2023-05-09T18:45:16;98990.50;;;18.04;100.00
15670;BME280;18524;45.190;5.732;2023-05-09T18:50:06;98991.81;;;18.08;100.00
15670;BME280;18524;45.190;5.732;2023-05-09T18:54:57;98988.44;;;17.91;100.00
15670;BME280;18524;45.190;5.732;2023-05-09T18:59:47;98994.25;;;17.87;100.00
15670;BME280;18524;45.190;5.732;2023-05-09T19:04:40;98995.25;;;17.86;100.00
15670;BME280;18524;45.190;5.732;2023-05-09T19:09:31;99010.84;;;17.80;100.00
15670;BME280;18524;45.190;5.732;2023-05-09T19:14:21;99005.19;;;17.84;100.00
15670;BME280;18524;45.190;5.732;2023-05-09T19:19:12;98992.44;;;17.79;100.00
15670;BME280;18524;45.190;5.732;2023-05-09T19:24:02;98994.13;;;17.72;100.00
15670;BME280;18524;45.190;5.732;2023-05-09T19:28:53;98993.97;;;17.73;100.00
15670;BME280;18524;45.190;5.732;2023-05-09T19:33:46;99003.75;;;17.73;100.00
15670;BME280;18524;45.190;5.732;2023-05-09T19:38:37;99000.28;;;17.64;100.00
15670;BME280;18524;45.190;5.732;2023-05-09T19:43:27;99000.97;;;17.58;100.00
15670;BME280;18524;45.190;5.732;2023-05-09T19:48:17;99009.94;;;17.57;100.00
15670;BME280;18524;45.190;5.732;2023-05-09T19:53:08;99019.50;;;17.66;100.00
15670;BME280;18524;45.190;5.732;2023-05-09T19:57:58;99036.94;;;17.69;100.00
15670;BME280;18524;45.190;5.732;2023-05-09T20:02:49;99055.50;;;17.69;100.00
15670;BME280;18524;45.190;5.732;2023-05-09T20:07:39;99058.47;;;17.66;100.00
15670;BME280;18524;45.190;5.732;2023-05-09T20:12:29;99065.28;;;17.68;100.00
15670;BME280;18524;45.190;5.732;2023-05-09T20:17:20;99082.66;;;17.63;100.00
15670;BME280;18524;45.190;5.732;2023-05-09T20:22:10;99076.41;;;17.56;100.00
15670;BME280;18524;45.190;5.732;2023-05-09T20:27:01;99086.34;;;17.54;100.00
15670;BME280;18524;45.190;5.732;2023-05-09T20:31:52;99075.41;;;17.40;100.00
15670;BME280;18524;45.190;5.732;2023-05-09T20:36:46;99069.16;;;17.25;100.00
15670;BME280;18524;45.190;5.732;2023-05-09T20:41:37;99061.38;;;17.24;100.00
15670;BME280;18524;45.190;5.732;2023-05-09T20:46:27;99068.66;;;17.22;100.00
15670;BME280;18524;45.190;5.732;2023-05-09T20:51:18;99075.44;;;17.32;100.00
15670;BME280;18524;45.190;5.732;2023-05-09T20:56:08;99074.94;;;17.29;100.00
15670;BME280;18524;45.190;5.732;2023-05-09T21:00:58;99084.06;;;17.26;100.00
15670;BME280;18524;45.190;5.732;2023-05-09T21:05:49;99089.03;;;17.21;100.00
15670;BME280;18524;45.190;5.732;2023-05-09T21:10:39;99099.31;;;17.16;100.00
15670;BME280;18524;45.190;5.732;2023-05-09T21:15:30;99099.81;;;17.19;100.00
15670;BME280;18524;45.190;5.732;2023-05-09T21:20:20;99093.84;;;17.26;100.00
15670;BME280;18524;45.190;5.732;2023-05-09T21:25:11;99092.03;;;17.26;100.00
15670;BME280;18524;45.190;5.732;2023-05-09T21:30:01;99106.13;;;17.18;100.00
15670;BME280;18524;45.190;5.732;2023-05-09T21:34:52;99101.31;;;17.22;100.00
15670;BME280;18524;45.190;5.732;2023-05-09T21:39:42;99107.75;;;17.19;100.00
15670;BME280;18524;45.190;5.732;2023-05-09T21:44:34;99098.81;;;17.21;100.00
15670;BME280;18524;45.190;5.732;2023-05-09T21:49:26;99086.22;;;17.23;100.00
15670;BME280;18524;45.190;5.732;2023-05-09T21:54:17;99086.41;;;17.21;100.00
15670;BME280;18524;45.190;5.732;2023-05-09T21:59:08;99090.03;;;17.20;100.00
15670;BME280;18524;45.190;5.732;2023-05-09T22:03:58;99097.34;;;17.18;100.00
15670;BME280;18524;45.190;5.732;2023-05-09T22:08:49;99091.03;;;17.11;100.00
15670;BME280;18524;45.190;5.732;2023-05-09T22:13:40;99074.97;;;17.12;100.00
15670;BME280;18524;45.190;5.732;2023-05-09T22:18:31;99079.44;;;17.12;100.00
15670;BME280;18524;45.190;5.732;2023-05-09T22:23:22;99082.56;;;17.07;100.00
15670;BME280;18524;45.190;5.732;2023-05-09T22:28:12;99107.25;;;17.00;100.00
15670;BME280;18524;45.190;5.732;2023-05-09T22:33:03;99107.09;;;16.93;100.00
15670;BME280;18524;45.190;5.732;2023-05-09T22:37:53;99113.38;;;17.00;100.00
15670;BME280;18524;45.190;5.732;2023-05-09T22:42:43;99120.00;;;17.04;100.00
15670;BME280;18524;45.190;5.732;2023-05-09T22:47:34;99119.00;;;16.97;100.00
15670;BME280;18524;45.190;5.732;2023-05-09T22:52:24;99112.06;;;16.96;100.00
15670;BME280;18524;45.190;5.732;2023-05-09T22:57:15;99104.13;;;16.96;100.00
15670;BME280;18524;45.190;5.732;2023-05-09T23:02:07;99112.41;;;16.93;100.00
15670;BME280;18524;45.190;5.732;2023-05-09T23:06:57;99111.41;;;16.86;100.00
15670;BME280;18524;45.190;5.732;2023-05-09T23:11:47;99117.44;;;16.54;100.00
15670;BME280;18524;45.190;5.732;2023-05-09T23:16:38;99098.06;;;16.53;100.00
15670;BME280;18524;45.190;5.732;2023-05-09T23:21:28;99093.44;;;16.55;100.00
15670;BME280;18524;45.190;5.732;2023-05-09T23:26:18;99085.97;;;16.43;100.00
15670;BME280;18524;45.190;5.732;2023-05-09T23:31:09;99099.53;;;16.40;100.00
15670;BME280;18524;45.190;5.732;2023-05-09T23:36:00;99115.09;;;16.43;100.00
15670;BME280;18524;45.190;5.732;2023-05-09T23:40:51;99129.50;;;16.48;100.00
15670;BME280;18524;45.190;5.732;2023-05-09T23:45:42;99138.78;;;16.52;100.00
15670;BME280;18524;45.190;5.732;2023-05-09T23:50:32;99136.47;;;16.49;100.00
15670;BME280;18524;45.190;5.732;2023-05-09T23:55:22;99132.56;;;16.27;100.00
